ADDS TAF Board (Experimental) INFO

IDs: Format: Expanded Condensed

Updated at: 0347 UTC 23 Oct 2014

KJFK - New York/Kennedy Int, NY, US

Issued at 0218 UTC 23 Oct 2014
Time0342Z23/04Z23/05Z23/06Z23/07Z23/08Z23/09Z23/10Z23/11Z23/12Z23/13Z23/14Z23/15Z23/16Z
TypeOBSPRVLPRVLPRVLPRVLPRVLPRVLPRVLPRVLPRVLPRVLPRVLPRVLPRVL
VIS104444666666666
CIG1515151515101010101010151515
CoverOVCBKNBKNBKNBKNBKNBKNBKNBKNBKNBKNBKNBKNBKN
FltCatMVFRMVFRMVFRMVFRMVFRMVFRMVFRMVFRMVFRMVFRMVFRMVFRMVFRMVFR
WX-RA-RA BR-RA BR-RA BR-RA BRBR VCSHBR VCSHBR VCSHBR VCSHBR VCSHBR VCSHBR VCSHBR VCSHBR VCSH
WDir360350350350350350350350350350350330330330
WSpd1723232323222222222222212121
WGst2535353535333333333333292929
R04/22
XWnd915151515141414141414181818
XGst1323232323222222222222252525
HWnd1517171717171717171717101010
HGst2126262626252525252525141414
R13/31
XWnd1517171717171717171717101010
XGst2126262626252525252525141414
HWnd-9-15-15-15-15-14-14-14-14-14-14-18-18-18
HGst-13-23-23-23-23-22-22-22-22-22-22-25-25-25
Raw TAF
KJFK 230218Z 2302/2406 35018G27KT 6SM -RA BR SCT015 BKN025 OVC035 WS020/03050KT
  TEMPO 2302/2304 5SM RA BR BKN015
  FM230400 35023G35KT 4SM -RA BR BKN015 WS020/03050KT
  FM230800 35022G33KT 6SM BR VCSH BKN010
  FM231400 33021G29KT 6SM BR VCSH BKN015
  FM231800 33020G28KT P6SM BKN020 OVC035
  FM232300 32017G25KT P6SM BKN040 BKN080


Raw METAR
KJFK 230342Z 36017G25KT 10SM -RA OVC015 11/08 A2972 RMK AO2 PK WND 35030/0325 P0004
KJFK 230251Z 35019G26KT 5SM RA BR OVC014 11/09 A2972 RMK AO2 PK WND 35027/0239 SLP065 P0015 60024 T01110089 56013
KJFK 230247Z 35019G27KT 5SM +RA BR OVC014 11/09 A2973 RMK AO2 PK WND 35027/0239 P0013

TAF Board Legend

Hazard VFR MVFR IFR LIFR
Visibility (sm) >5 3≤X≤5 1≤X<3 <1
Ceiling (100 ft) >30 10≤X≤30 5≤X<10 <5
Wind Speed (kt) <10 10≤X<20 20≤X<30 ≥30
Wind Gust (kt) <15 15≤X<25 25≤X<35 ≥35
Weather No Wx Reported VCTS,-TS,-FZRA TS,FZRA +TS,+FZRA


Page loaded:  03:47 UTC  |   08:47 PM Pacific  |   09:47 PM Mountain  |   10:47 PM Central  |   11:47 PM Eastern

 

ADVISORIES

FORECASTS

FORECASTS

OBSERVATIONS

USER TOOLS

ABOUT US